UKOH/KHE METAR and TAF weather

Enter ICAO airport designator
Station Type Date Time Source
UKOH METAR 2020/11/25 20:00 UTC NOAA

UKOH 252000Z 29003MPS CAVOK 01/M01 Q1023 R03/CLRD65 NOSIG


Station Type Date Time Source
UKOH Decoded METAR 2020/11/25 20:00 UTC NOAA

Station name not available
Nov 25, 2020 - 03:00 PM EST / 2020.11.25 2000 UTC
Wind: from the WNW (290 degrees) at 7 MPH (6 KT):0
Visibility: greater than 7 mile(s):0
Temperature: 33 F (1 C)
Windchill: 26 F (-3 C):1
Dew Point: 30 F (-1 C)
Relative Humidity: 86%
Pressure (altimeter): 30.21 in. Hg (1023 hPa)
ob: UKOH 252000Z 29003MPS CAVOK 01/M01 Q1023 R03/CLRD65 NOSIG
cycle: 20

Station Type Date Time Source
UKOH TAF UTC NOAA

Error!

Example: see airport list